Terminal Aerodrome Forecast
Issued by NWS

Home | Current Version | Previous Version | Text Only | Print | Product List | Glossary On
Versions: 1 2 3 4 5 6 7 8 9 10 11 12 13 14 15
000
FTUS45 KABQ 012339
TAFAEG
TAF
KAEG 012339Z 0200/0224 31010KT P6SM VCSH SCT060 BKN100
      TEMPO 0200/0202 VRB15G25KT 6SM -TSRA BKN060CB
     FM020400 12006KT P6SM VCTS BKN060CB
     FM020700 VRB06KT P6SM BKN100
     FM022100 23010KT P6SM VCSH SCT060 BKN100=

USA.gov is the U.S. government's official web portal to all federal, state and local government web resources and services.